sensor_id;sensor_type;location;lat;lon;timestamp;P1;durP1;ratioP1;P2;durP2;ratioP2
57111;SDS011;42992;49.084;19.300;2022-11-20T00:01:04;53.50;;;27.50;;
57111;SDS011;42992;49.084;19.300;2022-11-20T00:06:15;47.63;;;25.08;;
57111;SDS011;42992;49.084;19.300;2022-11-20T00:08:44;49.33;;;24.80;;
57111;SDS011;42992;49.084;19.300;2022-11-20T00:11:14;44.17;;;23.80;;
57111;SDS011;42992;49.084;19.300;2022-11-20T00:13:42;45.17;;;23.30;;
57111;SDS011;42992;49.084;19.300;2022-11-20T00:16:10;68.50;;;30.67;;
57111;SDS011;42992;49.084;19.300;2022-11-20T00:18:36;59.97;;;30.60;;
57111;SDS011;42992;49.084;19.300;2022-11-20T00:21:10;60.20;;;30.73;;
57111;SDS011;42992;49.084;19.300;2022-11-20T00:23:37;54.20;;;28.00;;
57111;SDS011;42992;49.084;19.300;2022-11-20T00:26:06;53.58;;;28.08;;
57111;SDS011;42992;49.084;19.300;2022-11-20T00:28:33;55.35;;;28.77;;
57111;SDS011;42992;49.084;19.300;2022-11-20T00:31:09;58.65;;;30.05;;
57111;SDS011;42992;49.084;19.300;2022-11-20T00:33:36;58.38;;;30.08;;
57111;SDS011;42992;49.084;19.300;2022-11-20T00:36:10;58.88;;;29.23;;
57111;SDS011;42992;49.084;19.300;2022-11-20T00:38:37;57.53;;;27.80;;
57111;SDS011;42992;49.084;19.300;2022-11-20T00:41:05;48.00;;;26.77;;
57111;SDS011;42992;49.084;19.300;2022-11-20T00:43:32;46.63;;;25.17;;
57111;SDS011;42992;49.084;19.300;2022-11-20T00:46:03;49.40;;;26.33;;
57111;SDS011;42992;49.084;19.300;2022-11-20T00:48:30;49.53;;;27.27;;
57111;SDS011;42992;49.084;19.300;2022-11-20T00:50:57;53.85;;;28.25;;
57111;SDS011;42992;49.084;19.300;2022-11-20T00:53:23;49.22;;;26.77;;
57111;SDS011;42992;49.084;19.300;2022-11-20T00:55:57;50.65;;;27.65;;
57111;SDS011;42992;49.084;19.300;2022-11-20T00:58:30;51.40;;;25.92;;
57111;SDS011;42992;49.084;19.300;2022-11-20T01:01:09;51.55;;;26.58;;
57111;SDS011;42992;49.084;19.300;2022-11-20T01:03:47;51.05;;;27.40;;
57111;SDS011;42992;49.084;19.300;2022-11-20T01:06:34;50.28;;;27.65;;
57111;SDS011;42992;49.084;19.300;2022-11-20T01:09:03;46.58;;;24.67;;
57111;SDS011;42992;49.084;19.300;2022-11-20T01:14:34;48.08;;;24.70;;
57111;SDS011;42992;49.084;19.300;2022-11-20T01:17:10;53.40;;;26.60;;
57111;SDS011;42992;49.084;19.300;2022-11-20T01:19:42;51.65;;;26.88;;
57111;SDS011;42992;49.084;19.300;2022-11-20T01:22:08;50.63;;;25.13;;
57111;SDS011;42992;49.084;19.300;2022-11-20T01:24:34;48.10;;;26.65;;
57111;SDS011;42992;49.084;19.300;2022-11-20T01:26:59;50.90;;;27.73;;
57111;SDS011;42992;49.084;19.300;2022-11-20T01:29:26;65.25;;;32.58;;
57111;SDS011;42992;49.084;19.300;2022-11-20T01:31:52;53.22;;;28.27;;
57111;SDS011;42992;49.084;19.300;2022-11-20T01:34:18;47.55;;;26.50;;
57111;SDS011;42992;49.084;19.300;2022-11-20T01:36:45;51.17;;;27.17;;
57111;SDS011;42992;49.084;19.300;2022-11-20T01:39:21;49.30;;;26.60;;
57111;SDS011;42992;49.084;19.300;2022-11-20T01:41:47;51.80;;;27.85;;
57111;SDS011;42992;49.084;19.300;2022-11-20T01:47:06;45.33;;;24.55;;
57111;SDS011;42992;49.084;19.300;2022-11-20T01:49:37;48.17;;;24.35;;
57111;SDS011;42992;49.084;19.300;2022-11-20T01:52:05;47.67;;;24.38;;
57111;SDS011;42992;49.084;19.300;2022-11-20T01:54:39;51.55;;;24.98;;
57111;SDS011;42992;49.084;19.300;2022-11-20T01:57:06;45.60;;;24.08;;
57111;SDS011;42992;49.084;19.300;2022-11-20T01:59:34;52.70;;;25.63;;
57111;SDS011;42992;49.084;19.300;2022-11-20T02:02:02;46.20;;;24.60;;
57111;SDS011;42992;49.084;19.300;2022-11-20T02:04:29;45.25;;;25.20;;
57111;SDS011;42992;49.084;19.300;2022-11-20T02:06:57;45.85;;;24.77;;
57111;SDS011;42992;49.084;19.300;2022-11-20T02:09:24;49.95;;;25.42;;
57111;SDS011;42992;49.084;19.300;2022-11-20T02:11:51;49.17;;;25.90;;
57111;SDS011;42992;49.084;19.300;2022-11-20T02:14:17;49.00;;;25.73;;
57111;SDS011;42992;49.084;19.300;2022-11-20T02:16:46;46.25;;;25.25;;
57111;SDS011;42992;49.084;19.300;2022-11-20T02:19:22;48.53;;;24.58;;
57111;SDS011;42992;49.084;19.300;2022-11-20T02:22:02;49.08;;;24.33;;
57111;SDS011;42992;49.084;19.300;2022-11-20T02:24:30;52.35;;;26.75;;
57111;SDS011;42992;49.084;19.300;2022-11-20T02:26:57;48.22;;;25.77;;
57111;SDS011;42992;49.084;19.300;2022-11-20T02:32:18;50.13;;;26.23;;
57111;SDS011;42992;49.084;19.300;2022-11-20T02:34:50;48.38;;;25.40;;
57111;SDS011;42992;49.084;19.300;2022-11-20T02:37:20;50.03;;;26.48;;
57111;SDS011;42992;49.084;19.300;2022-11-20T02:39:46;48.65;;;26.55;;
57111;SDS011;42992;49.084;19.300;2022-11-20T02:42:13;49.28;;;25.73;;
57111;SDS011;42992;49.084;19.300;2022-11-20T02:44:39;48.35;;;25.88;;
57111;SDS011;42992;49.084;19.300;2022-11-20T02:47:05;50.70;;;27.20;;
57111;SDS011;42992;49.084;19.300;2022-11-20T02:49:30;51.58;;;27.17;;
57111;SDS011;42992;49.084;19.300;2022-11-20T02:51:58;48.67;;;26.77;;
57111;SDS011;42992;49.084;19.300;2022-11-20T02:54:23;50.80;;;26.20;;
57111;SDS011;42992;49.084;19.300;2022-11-20T02:56:49;50.08;;;26.58;;
57111;SDS011;42992;49.084;19.300;2022-11-20T02:59:15;50.50;;;26.83;;
57111;SDS011;42992;49.084;19.300;2022-11-20T03:01:41;50.58;;;26.50;;
57111;SDS011;42992;49.084;19.300;2022-11-20T03:04:07;52.55;;;26.85;;
57111;SDS011;42992;49.084;19.300;2022-11-20T03:06:32;47.47;;;26.15;;
57111;SDS011;42992;49.084;19.300;2022-11-20T03:08:58;52.13;;;28.67;;
57111;SDS011;42992;49.084;19.300;2022-11-20T03:11:24;52.67;;;27.65;;
57111;SDS011;42992;49.084;19.300;2022-11-20T03:13:49;52.03;;;27.38;;
57111;SDS011;42992;49.084;19.300;2022-11-20T03:16:16;51.15;;;27.17;;
57111;SDS011;42992;49.084;19.300;2022-11-20T03:18:42;50.33;;;27.20;;
57111;SDS011;42992;49.084;19.300;2022-11-20T03:21:07;52.17;;;27.60;;
57111;SDS011;42992;49.084;19.300;2022-11-20T03:23:33;53.88;;;27.95;;
57111;SDS011;42992;49.084;19.300;2022-11-20T03:28:48;52.88;;;27.42;;
57111;SDS011;42992;49.084;19.300;2022-11-20T03:31:14;50.22;;;27.38;;
57111;SDS011;42992;49.084;19.300;2022-11-20T03:33:40;51.13;;;25.70;;
57111;SDS011;42992;49.084;19.300;2022-11-20T03:36:07;53.70;;;26.67;;
57111;SDS011;42992;49.084;19.300;2022-11-20T03:38:33;55.97;;;27.60;;
57111;SDS011;42992;49.084;19.300;2022-11-20T03:40:59;53.97;;;28.42;;
57111;SDS011;42992;49.084;19.300;2022-11-20T03:43:24;51.97;;;26.85;;
57111;SDS011;42992;49.084;19.300;2022-11-20T03:45:50;48.67;;;26.70;;
57111;SDS011;42992;49.084;19.300;2022-11-20T03:48:15;49.65;;;26.13;;
57111;SDS011;42992;49.084;19.300;2022-11-20T03:50:42;50.40;;;26.30;;
57111;SDS011;42992;49.084;19.300;2022-11-20T03:53:08;44.63;;;25.08;;
57111;SDS011;42992;49.084;19.300;2022-11-20T03:55:34;45.78;;;25.60;;
57111;SDS011;42992;49.084;19.300;2022-11-20T03:57:59;50.17;;;26.02;;
57111;SDS011;42992;49.084;19.300;2022-11-20T04:00:24;43.50;;;24.52;;
57111;SDS011;42992;49.084;19.300;2022-11-20T04:02:50;45.80;;;25.50;;
57111;SDS011;42992;49.084;19.300;2022-11-20T04:05:15;54.90;;;27.55;;
57111;SDS011;42992;49.084;19.300;2022-11-20T04:07:41;53.08;;;27.38;;
57111;SDS011;42992;49.084;19.300;2022-11-20T04:10:08;54.22;;;27.35;;
57111;SDS011;42992;49.084;19.300;2022-11-20T04:12:33;51.85;;;26.88;;
57111;SDS011;42992;49.084;19.300;2022-11-20T04:15:00;51.85;;;26.33;;
57111;SDS011;42992;49.084;19.300;2022-11-20T04:17:25;47.88;;;26.67;;
57111;SDS011;42992;49.084;19.300;2022-11-20T04:19:51;49.05;;;26.55;;
57111;SDS011;42992;49.084;19.300;2022-11-20T04:22:16;47.55;;;25.27;;
57111;SDS011;42992;49.084;19.300;2022-11-20T04:24:43;49.08;;;26.10;;
57111;SDS011;42992;49.084;19.300;2022-11-20T04:27:08;49.47;;;26.92;;
57111;SDS011;42992;49.084;19.300;2022-11-20T04:29:34;51.75;;;27.20;;
57111;SDS011;42992;49.084;19.300;2022-11-20T04:32:10;50.97;;;26.35;;
57111;SDS011;42992;49.084;19.300;2022-11-20T04:34:40;47.35;;;24.25;;
57111;SDS011;42992;49.084;19.300;2022-11-20T04:37:06;47.90;;;23.95;;
57111;SDS011;42992;49.084;19.300;2022-11-20T04:39:31;51.13;;;25.75;;
57111;SDS011;42992;49.084;19.300;2022-11-20T04:41:58;47.63;;;25.42;;
57111;SDS011;42992;49.084;19.300;2022-11-20T04:44:54;47.80;;;25.88;;
57111;SDS011;42992;49.084;19.300;2022-11-20T04:47:25;48.97;;;25.95;;
57111;SDS011;42992;49.084;19.300;2022-11-20T04:49:51;46.80;;;24.17;;
57111;SDS011;42992;49.084;19.300;2022-11-20T04:52:17;47.03;;;23.83;;
57111;SDS011;42992;49.084;19.300;2022-11-20T04:54:44;47.00;;;25.27;;
57111;SDS011;42992;49.084;19.300;2022-11-20T04:57:09;47.30;;;25.17;;
57111;SDS011;42992;49.084;19.300;2022-11-20T04:59:35;48.40;;;24.92;;
57111;SDS011;42992;49.084;19.300;2022-11-20T05:02:00;47.75;;;25.23;;
57111;SDS011;42992;49.084;19.300;2022-11-20T05:04:26;43.03;;;23.48;;
57111;SDS011;42992;49.084;19.300;2022-11-20T05:06:51;45.92;;;23.92;;
57111;SDS011;42992;49.084;19.300;2022-11-20T05:09:17;45.38;;;24.65;;
57111;SDS011;42992;49.084;19.300;2022-11-20T05:11:42;44.15;;;23.48;;
57111;SDS011;42992;49.084;19.300;2022-11-20T05:14:09;43.65;;;23.02;;
57111;SDS011;42992;49.084;19.300;2022-11-20T05:16:38;45.40;;;24.30;;
57111;SDS011;42992;49.084;19.300;2022-11-20T05:19:04;42.65;;;23.25;;
57111;SDS011;42992;49.084;19.300;2022-11-20T05:21:30;44.30;;;23.95;;
57111;SDS011;42992;49.084;19.300;2022-11-20T05:23:58;48.50;;;24.60;;
57111;SDS011;42992;49.084;19.300;2022-11-20T05:26:26;42.95;;;24.25;;
57111;SDS011;42992;49.084;19.300;2022-11-20T05:28:52;44.67;;;22.73;;
57111;SDS011;42992;49.084;19.300;2022-11-20T05:31:20;40.92;;;22.33;;
57111;SDS011;42992;49.084;19.300;2022-11-20T05:33:47;40.95;;;21.83;;
57111;SDS011;42992;49.084;19.300;2022-11-20T05:36:14;42.88;;;21.92;;
57111;SDS011;42992;49.084;19.300;2022-11-20T05:38:43;44.22;;;23.63;;
57111;SDS011;42992;49.084;19.300;2022-11-20T05:41:16;41.17;;;22.55;;
57111;SDS011;42992;49.084;19.300;2022-11-20T05:43:43;43.10;;;22.67;;
57111;SDS011;42992;49.084;19.300;2022-11-20T05:46:13;42.15;;;23.02;;
57111;SDS011;42992;49.084;19.300;2022-11-20T05:48:40;48.97;;;23.95;;
57111;SDS011;42992;49.084;19.300;2022-11-20T05:51:08;43.10;;;22.92;;
57111;SDS011;42992;49.084;19.300;2022-11-20T05:53:34;41.90;;;22.48;;
57111;SDS011;42992;49.084;19.300;2022-11-20T05:56:01;43.95;;;23.55;;
57111;SDS011;42992;49.084;19.300;2022-11-20T05:58:29;43.45;;;22.63;;
57111;SDS011;42992;49.084;19.300;2022-11-20T06:01:02;44.95;;;24.75;;
57111;SDS011;42992;49.084;19.300;2022-11-20T06:03:29;43.25;;;23.48;;
57111;SDS011;42992;49.084;19.300;2022-11-20T06:05:55;43.72;;;22.90;;
57111;SDS011;42992;49.084;19.300;2022-11-20T06:08:25;43.95;;;22.90;;
57111;SDS011;42992;49.084;19.300;2022-11-20T06:10:54;43.50;;;23.20;;
57111;SDS011;42992;49.084;19.300;2022-11-20T06:13:21;42.35;;;23.05;;
57111;SDS011;42992;49.084;19.300;2022-11-20T06:15:53;45.45;;;23.55;;
57111;SDS011;42992;49.084;19.300;2022-11-20T06:18:22;42.60;;;23.70;;
57111;SDS011;42992;49.084;19.300;2022-11-20T06:20:48;42.25;;;23.92;;
57111;SDS011;42992;49.084;19.300;2022-11-20T06:23:13;43.33;;;23.23;;
57111;SDS011;42992;49.084;19.300;2022-11-20T06:25:42;43.53;;;23.23;;
57111;SDS011;42992;49.084;19.300;2022-11-20T06:28:07;45.03;;;23.27;;
57111;SDS011;42992;49.084;19.300;2022-11-20T06:30:34;40.10;;;23.13;;
57111;SDS011;42992;49.084;19.300;2022-11-20T06:32:59;39.45;;;21.90;;
57111;SDS011;42992;49.084;19.300;2022-11-20T06:35:24;37.30;;;21.45;;
57111;SDS011;42992;49.084;19.300;2022-11-20T06:37:50;39.22;;;21.45;;
57111;SDS011;42992;49.084;19.300;2022-11-20T06:40:15;40.33;;;21.83;;
57111;SDS011;42992;49.084;19.300;2022-11-20T06:42:41;39.35;;;22.25;;
57111;SDS011;42992;49.084;19.300;2022-11-20T06:45:06;41.75;;;21.65;;
57111;SDS011;42992;49.084;19.300;2022-11-20T06:47:32;44.90;;;24.75;;
57111;SDS011;42992;49.084;19.300;2022-11-20T06:49:58;48.25;;;26.45;;
57111;SDS011;42992;49.084;19.300;2022-11-20T06:52:25;42.42;;;25.02;;
57111;SDS011;42992;49.084;19.300;2022-11-20T06:54:52;46.63;;;26.17;;
57111;SDS011;42992;49.084;19.300;2022-11-20T06:57:18;47.08;;;26.35;;
57111;SDS011;42992;49.084;19.300;2022-11-20T06:59:44;52.08;;;28.15;;
57111;SDS011;42992;49.084;19.300;2022-11-20T07:02:12;54.08;;;26.65;;
57111;SDS011;42992;49.084;19.300;2022-11-20T07:04:56;55.65;;;28.38;;
57111;SDS011;42992;49.084;19.300;2022-11-20T07:07:22;46.50;;;26.05;;
57111;SDS011;42992;49.084;19.300;2022-11-20T07:09:48;52.40;;;28.13;;
57111;SDS011;42992;49.084;19.300;2022-11-20T07:12:13;45.72;;;25.98;;
57111;SDS011;42992;49.084;19.300;2022-11-20T07:14:39;45.20;;;25.33;;
57111;SDS011;42992;49.084;19.300;2022-11-20T07:17:05;46.90;;;25.33;;
57111;SDS011;42992;49.084;19.300;2022-11-20T07:19:30;48.75;;;25.08;;
57111;SDS011;42992;49.084;19.300;2022-11-20T07:22:00;42.85;;;23.10;;
57111;SDS011;42992;49.084;19.300;2022-11-20T07:24:25;45.40;;;23.25;;
57111;SDS011;42992;49.084;19.300;2022-11-20T07:26:51;45.33;;;24.13;;
57111;SDS011;42992;49.084;19.300;2022-11-20T07:29:17;47.50;;;25.48;;
57111;SDS011;42992;49.084;19.300;2022-11-20T07:31:44;46.58;;;26.58;;
57111;SDS011;42992;49.084;19.300;2022-11-20T07:34:09;46.75;;;26.08;;
57111;SDS011;42992;49.084;19.300;2022-11-20T07:36:35;49.42;;;25.27;;
57111;SDS011;42992;49.084;19.300;2022-11-20T07:39:02;62.75;;;29.80;;
57111;SDS011;42992;49.084;19.300;2022-11-20T07:41:27;46.85;;;25.98;;
57111;SDS011;42992;49.084;19.300;2022-11-20T07:43:54;45.08;;;25.20;;
57111;SDS011;42992;49.084;19.300;2022-11-20T07:46:20;44.33;;;24.75;;
57111;SDS011;42992;49.084;19.300;2022-11-20T07:48:47;41.00;;;23.17;;
57111;SDS011;42992;49.084;19.300;2022-11-20T07:51:12;45.15;;;24.63;;
57111;SDS011;42992;49.084;19.300;2022-11-20T07:53:38;49.05;;;25.58;;
57111;SDS011;42992;49.084;19.300;2022-11-20T07:56:04;45.50;;;26.13;;
57111;SDS011;42992;49.084;19.300;2022-11-20T07:58:32;44.80;;;25.42;;
57111;SDS011;42992;49.084;19.300;2022-11-20T08:01:05;46.00;;;26.08;;
57111;SDS011;42992;49.084;19.300;2022-11-20T08:03:31;48.10;;;26.75;;
57111;SDS011;42992;49.084;19.300;2022-11-20T08:06:00;52.25;;;25.45;;
57111;SDS011;42992;49.084;19.300;2022-11-20T08:08:26;46.75;;;26.20;;
57111;SDS011;42992;49.084;19.300;2022-11-20T08:10:51;44.97;;;26.38;;
57111;SDS011;42992;49.084;19.300;2022-11-20T08:13:17;45.83;;;24.67;;
57111;SDS011;42992;49.084;19.300;2022-11-20T08:16:00;42.15;;;23.75;;
57111;SDS011;42992;49.084;19.300;2022-11-20T08:18:26;42.85;;;24.38;;
57111;SDS011;42992;49.084;19.300;2022-11-20T08:20:52;48.10;;;26.67;;
57111;SDS011;42992;49.084;19.300;2022-11-20T08:23:17;47.60;;;25.08;;
57111;SDS011;42992;49.084;19.300;2022-11-20T08:25:43;45.13;;;25.27;;
57111;SDS011;42992;49.084;19.300;2022-11-20T08:28:09;45.55;;;25.10;;
57111;SDS011;42992;49.084;19.300;2022-11-20T08:30:35;46.42;;;26.10;;
57111;SDS011;42992;49.084;19.300;2022-11-20T08:33:02;48.78;;;27.35;;
57111;SDS011;42992;49.084;19.300;2022-11-20T08:35:32;43.90;;;25.13;;
57111;SDS011;42992;49.084;19.300;2022-11-20T08:37:59;47.67;;;25.83;;
57111;SDS011;42992;49.084;19.300;2022-11-20T08:40:44;49.88;;;25.85;;
57111;SDS011;42992;49.084;19.300;2022-11-20T08:43:32;45.78;;;24.27;;
57111;SDS011;42992;49.084;19.300;2022-11-20T08:45:58;44.45;;;24.67;;
57111;SDS011;42992;49.084;19.300;2022-11-20T08:48:24;46.58;;;24.67;;
57111;SDS011;42992;49.084;19.300;2022-11-20T08:50:50;44.13;;;25.40;;
57111;SDS011;42992;49.084;19.300;2022-11-20T08:53:15;43.35;;;24.58;;
57111;SDS011;42992;49.084;19.300;2022-11-20T08:55:41;46.17;;;24.35;;
57111;SDS011;42992;49.084;19.300;2022-11-20T08:58:07;44.75;;;24.90;;
57111;SDS011;42992;49.084;19.300;2022-11-20T09:00:33;44.28;;;24.98;;
57111;SDS011;42992;49.084;19.300;2022-11-20T09:02:59;41.97;;;24.10;;
57111;SDS011;42992;49.084;19.300;2022-11-20T09:05:27;38.88;;;22.75;;
57111;SDS011;42992;49.084;19.300;2022-11-20T09:07:56;40.45;;;22.42;;
57111;SDS011;42992;49.084;19.300;2022-11-20T09:10:24;44.53;;;23.35;;
57111;SDS011;42992;49.084;19.300;2022-11-20T09:12:49;41.30;;;23.25;;
57111;SDS011;42992;49.084;19.300;2022-11-20T09:15:17;41.88;;;23.08;;
57111;SDS011;42992;49.084;19.300;2022-11-20T09:17:49;44.80;;;25.20;;
57111;SDS011;42992;49.084;19.300;2022-11-20T09:20:15;43.45;;;24.20;;
57111;SDS011;42992;49.084;19.300;2022-11-20T09:22:41;41.78;;;23.13;;
57111;SDS011;42992;49.084;19.300;2022-11-20T09:25:06;39.65;;;23.30;;
57111;SDS011;42992;49.084;19.300;2022-11-20T09:27:32;39.67;;;22.80;;
57111;SDS011;42992;49.084;19.300;2022-11-20T09:29:57;42.55;;;23.33;;
57111;SDS011;42992;49.084;19.300;2022-11-20T09:32:23;40.15;;;22.63;;
57111;SDS011;42992;49.084;19.300;2022-11-20T09:34:51;38.35;;;22.63;;
57111;SDS011;42992;49.084;19.300;2022-11-20T09:37:17;41.25;;;22.50;;
57111;SDS011;42992;49.084;19.300;2022-11-20T09:39:44;37.95;;;21.98;;
57111;SDS011;42992;49.084;19.300;2022-11-20T09:44:57;38.75;;;22.33;;
57111;SDS011;42992;49.084;19.300;2022-11-20T09:47:34;37.70;;;22.42;;
57111;SDS011;42992;49.084;19.300;2022-11-20T09:55:15;30.02;;;17.85;;
57111;SDS011;42992;49.084;19.300;2022-11-20T09:57:42;30.40;;;19.55;;
57111;SDS011;42992;49.084;19.300;2022-11-20T10:00:12;32.67;;;19.05;;
57111;SDS011;42992;49.084;19.300;2022-11-20T10:10:16;36.28;;;20.95;;
57111;SDS011;42992;49.084;19.300;2022-11-20T10:15:33;33.25;;;20.95;;
57111;SDS011;42992;49.084;19.300;2022-11-20T10:23:22;34.30;;;20.55;;
57111;SDS011;42992;49.084;19.300;2022-11-20T10:36:44;39.35;;;21.13;;
57111;SDS011;42992;49.084;19.300;2022-11-20T10:39:24;37.05;;;19.58;;
57111;SDS011;42992;49.084;19.300;2022-11-20T10:41:51;36.60;;;21.02;;
57111;SDS011;42992;49.084;19.300;2022-11-20T10:44:20;38.45;;;20.55;;
57111;SDS011;42992;49.084;19.300;2022-11-20T10:47:04;35.30;;;20.07;;
57111;SDS011;42992;49.084;19.300;2022-11-20T10:49:36;34.47;;;20.23;;
57111;SDS011;42992;49.084;19.300;2022-11-20T10:52:31;34.55;;;20.52;;
57111;SDS011;42992;49.084;19.300;2022-11-20T11:00:26;37.22;;;20.83;;
57111;SDS011;42992;49.084;19.300;2022-11-20T11:02:52;35.67;;;21.15;;
57111;SDS011;42992;49.084;19.300;2022-11-20T11:08:03;34.95;;;20.17;;
57111;SDS011;42992;49.084;19.300;2022-11-20T11:13:03;35.55;;;20.25;;
57111;SDS011;42992;49.084;19.300;2022-11-20T11:15:37;36.17;;;21.98;;
57111;SDS011;42992;49.084;19.300;2022-11-20T11:18:03;36.95;;;21.50;;
57111;SDS011;42992;49.084;19.300;2022-11-20T11:20:29;37.35;;;20.17;;
57111;SDS011;42992;49.084;19.300;2022-11-20T11:22:58;35.03;;;21.45;;
57111;SDS011;42992;49.084;19.300;2022-11-20T11:25:28;32.30;;;18.98;;
57111;SDS011;42992;49.084;19.300;2022-11-20T11:27:54;40.55;;;21.27;;
57111;SDS011;42992;49.084;19.300;2022-11-20T11:30:22;33.75;;;20.30;;
57111;SDS011;42992;49.084;19.300;2022-11-20T11:33:02;31.45;;;18.95;;
57111;SDS011;42992;49.084;19.300;2022-11-20T11:35:38;33.25;;;18.48;;
57111;SDS011;42992;49.084;19.300;2022-11-20T11:38:27;28.33;;;16.98;;
57111;SDS011;42992;49.084;19.300;2022-11-20T11:41:16;28.15;;;15.63;;
57111;SDS011;42992;49.084;19.300;2022-11-20T11:44:00;23.67;;;14.02;;
57111;SDS011;42992;49.084;19.300;2022-11-20T11:46:54;22.52;;;12.90;;
57111;SDS011;42992;49.084;19.300;2022-11-20T11:49:23;23.48;;;11.43;;
57111;SDS011;42992;49.084;19.300;2022-11-20T11:57:00;9.23;;;5.03;;
57111;SDS011;42992;49.084;19.300;2022-11-20T11:59:28;13.27;;;7.15;;
57111;SDS011;42992;49.084;19.300;2022-11-20T12:02:00;12.68;;;7.32;;
57111;SDS011;42992;49.084;19.300;2022-11-20T12:07:03;9.52;;;4.75;;
57111;SDS011;42992;49.084;19.300;2022-11-20T12:09:37;10.35;;;4.95;;
57111;SDS011;42992;49.084;19.300;2022-11-20T12:12:09;9.27;;;4.53;;
57111;SDS011;42992;49.084;19.300;2022-11-20T12:14:37;8.65;;;4.18;;
57111;SDS011;42992;49.084;19.300;2022-11-20T12:17:03;7.47;;;3.95;;
57111;SDS011;42992;49.084;19.300;2022-11-20T12:19:33;8.15;;;3.83;;
57111;SDS011;42992;49.084;19.300;2022-11-20T12:24:49;7.82;;;3.92;;
57111;SDS011;42992;49.084;19.300;2022-11-20T12:34:52;5.25;;;2.78;;
57111;SDS011;42992;49.084;19.300;2022-11-20T12:40:12;9.02;;;4.28;;
57111;SDS011;42992;49.084;19.300;2022-11-20T13:01:51;10.27;;;5.70;;
57111;SDS011;42992;49.084;19.300;2022-11-20T13:06:46;9.82;;;5.05;;
57111;SDS011;42992;49.084;19.300;2022-11-20T13:09:13;15.73;;;8.30;;
57111;SDS011;42992;49.084;19.300;2022-11-20T13:11:41;16.10;;;8.38;;
57111;SDS011;42992;49.084;19.300;2022-11-20T13:19:11;9.93;;;4.97;;
57111;SDS011;42992;49.084;19.300;2022-11-20T13:21:39;9.98;;;5.43;;
57111;SDS011;42992;49.084;19.300;2022-11-20T13:24:20;11.43;;;5.20;;
57111;SDS011;42992;49.084;19.300;2022-11-20T13:29:30;9.05;;;4.97;;
57111;SDS011;42992;49.084;19.300;2022-11-20T13:32:04;9.32;;;5.05;;
57111;SDS011;42992;49.084;19.300;2022-11-20T13:34:33;8.90;;;5.07;;
57111;SDS011;42992;49.084;19.300;2022-11-20T13:36:59;9.60;;;5.20;;
57111;SDS011;42992;49.084;19.300;2022-11-20T13:39:35;9.00;;;4.30;;
57111;SDS011;42992;49.084;19.300;2022-11-20T13:42:20;25.08;;;11.45;;
57111;SDS011;42992;49.084;19.300;2022-11-20T13:44:55;42.92;;;19.48;;
57111;SDS011;42992;49.084;19.300;2022-11-20T13:47:46;25.95;;;11.85;;
57111;SDS011;42992;49.084;19.300;2022-11-20T13:50:13;10.52;;;5.97;;
57111;SDS011;42992;49.084;19.300;2022-11-20T13:55:38;10.70;;;5.53;;
57111;SDS011;42992;49.084;19.300;2022-11-20T14:00:44;9.43;;;4.90;;
57111;SDS011;42992;49.084;19.300;2022-11-20T14:03:17;8.57;;;4.70;;
57111;SDS011;42992;49.084;19.300;2022-11-20T14:05:51;9.80;;;5.32;;
57111;SDS011;42992;49.084;19.300;2022-11-20T14:08:44;14.00;;;6.40;;
57111;SDS011;42992;49.084;19.300;2022-11-20T14:11:21;12.00;;;6.60;;
57111;SDS011;42992;49.084;19.300;2022-11-20T14:13:53;12.15;;;7.05;;
57111;SDS011;42992;49.084;19.300;2022-11-20T14:16:22;13.05;;;6.80;;
57111;SDS011;42992;49.084;19.300;2022-11-20T14:19:17;12.43;;;6.43;;
57111;SDS011;42992;49.084;19.300;2022-11-20T14:21:43;15.15;;;7.65;;
57111;SDS011;42992;49.084;19.300;2022-11-20T14:24:37;20.42;;;10.82;;
57111;SDS011;42992;49.084;19.300;2022-11-20T14:27:50;20.90;;;10.43;;
57111;SDS011;42992;49.084;19.300;2022-11-20T14:30:43;20.75;;;9.75;;
57111;SDS011;42992;49.084;19.300;2022-11-20T14:33:44;25.95;;;13.23;;
57111;SDS011;42992;49.084;19.300;2022-11-20T14:36:23;26.63;;;14.35;;
57111;SDS011;42992;49.084;19.300;2022-11-20T14:38:51;30.27;;;15.63;;
57111;SDS011;42992;49.084;19.300;2022-11-20T14:41:24;31.63;;;16.67;;
57111;SDS011;42992;49.084;19.300;2022-11-20T14:52:20;31.88;;;16.23;;
57111;SDS011;42992;49.084;19.300;2022-11-20T14:54:49;30.27;;;15.05;;
57111;SDS011;42992;49.084;19.300;2022-11-20T14:57:33;30.67;;;15.32;;
57111;SDS011;42992;49.084;19.300;2022-11-20T15:00:19;33.08;;;18.27;;
57111;SDS011;42992;49.084;19.300;2022-11-20T15:02:53;33.70;;;17.23;;
57111;SDS011;42992;49.084;19.300;2022-11-20T15:05:20;34.20;;;18.38;;
57111;SDS011;42992;49.084;19.300;2022-11-20T15:07:47;29.88;;;16.42;;
57111;SDS011;42992;49.084;19.300;2022-11-20T15:13:06;33.95;;;19.15;;
57111;SDS011;42992;49.084;19.300;2022-11-20T15:15:47;36.15;;;20.45;;
57111;SDS011;42992;49.084;19.300;2022-11-20T15:18:58;38.08;;;20.65;;
57111;SDS011;42992;49.084;19.300;2022-11-20T15:21:28;37.05;;;19.23;;
57111;SDS011;42992;49.084;19.300;2022-11-20T15:23:54;37.38;;;19.52;;
57111;SDS011;42992;49.084;19.300;2022-11-20T15:26:25;31.63;;;17.30;;
57111;SDS011;42992;49.084;19.300;2022-11-20T15:28:57;37.55;;;19.98;;
57111;SDS011;42992;49.084;19.300;2022-11-20T15:31:23;35.10;;;19.60;;
57111;SDS011;42992;49.084;19.300;2022-11-20T15:33:51;37.83;;;20.52;;
57111;SDS011;42992;49.084;19.300;2022-11-20T15:36:31;31.50;;;17.58;;
57111;SDS011;42992;49.084;19.300;2022-11-20T15:38:57;49.75;;;29.98;;
57111;SDS011;42992;49.084;19.300;2022-11-20T15:41:24;39.88;;;23.65;;
57111;SDS011;42992;49.084;19.300;2022-11-20T15:43:53;38.55;;;22.25;;
57111;SDS011;42992;49.084;19.300;2022-11-20T15:49:45;32.25;;;18.02;;
57111;SDS011;42992;49.084;19.300;2022-11-20T15:55:55;40.25;;;21.13;;
57111;SDS011;42992;49.084;19.300;2022-11-20T16:01:11;37.35;;;20.38;;
57111;SDS011;42992;49.084;19.300;2022-11-20T16:03:38;35.63;;;20.50;;
57111;SDS011;42992;49.084;19.300;2022-11-20T16:06:03;39.20;;;21.83;;
57111;SDS011;42992;49.084;19.300;2022-11-20T16:08:29;36.90;;;19.92;;
57111;SDS011;42992;49.084;19.300;2022-11-20T16:10:54;35.30;;;18.23;;
57111;SDS011;42992;49.084;19.300;2022-11-20T16:13:43;41.08;;;22.85;;
57111;SDS011;42992;49.084;19.300;2022-11-20T16:16:31;52.95;;;27.38;;
57111;SDS011;42992;49.084;19.300;2022-11-20T16:19:17;56.78;;;27.30;;
57111;SDS011;42992;49.084;19.300;2022-11-20T16:21:44;44.55;;;23.75;;
57111;SDS011;42992;49.084;19.300;2022-11-20T16:24:11;41.08;;;23.77;;
57111;SDS011;42992;49.084;19.300;2022-11-20T16:26:40;42.00;;;23.73;;
57111;SDS011;42992;49.084;19.300;2022-11-20T16:29:11;37.28;;;20.90;;
57111;SDS011;42992;49.084;19.300;2022-11-20T16:31:44;37.38;;;20.77;;
57111;SDS011;42992;49.084;19.300;2022-11-20T16:34:11;42.08;;;22.58;;
57111;SDS011;42992;49.084;19.300;2022-11-20T16:36:40;35.78;;;19.92;;
57111;SDS011;42992;49.084;19.300;2022-11-20T16:39:29;41.83;;;22.58;;
57111;SDS011;42992;49.084;19.300;2022-11-20T16:41:54;52.22;;;28.08;;